VOTV

Trivandrum International Airport

Airport
ICAO code
VOTV
Summary
ICAO Region
APAC
ICAO Territory
Location

Thiruvananthapuram, Kerala,

Coordinates
8° 29' 9" N , 76° 55' 16" E
KCC
Metar
Observation
VOTV 281400Z 30008KT 4000 HZ FEW015 SCT080 28/24 Q1008 NOSIG
Station
Thiruvananthapuram
Date/Time
2022-09-28 14:00:00
Wind direction
300°
Wind speed
08 kts
Lowest cloud amount
few clouds
Temperature
28°C
Dew point
24°C
Humidity
78%
QNH
1008 hPa
Weather condition
n/a

Description

Trivandrum International Airport is a public use airport located 2 km west of Thiruvananthapuram, a city in the in the state of Kerala, India.

Climatology

Tropical Monsoon climate (Köppen climate classification Am) - monthly mean temperatures above 18°C in every month of the year and features wet and dry seasons. A tropical monsoon climate typically features less pronounced dry seasons than a tropical savanna climate and sees less variance in temperatures during the course of the year. The driest month nearly always occurs at or soon after the "winter" solstice.

Airport map

Aerial View

SKYbrary Partners:

Safety knowledge contributed by: